Terminal Aerodrome Forecast
Issued by NWS North Platte, NE

Home | Current Version | Previous Version | Graphics & Text | Print | Product List | Glossary On
Versions: 1 2 3 4 5 6 7 8 9 10 11 12 13 14 15 16 17 18 19 20 21 22
000
FTUS43 KLBF 222200 AAB
TAFVTN
TAF AMD
KVTN 222205Z 2222/2318 31013G25KT 1 1/2SM -SN BKN008 OVC025
     FM230100 32021G30KT 1SM -SN BLSN OVC008
     FM231600 33025G34KT 5SM -SN BLSN OVC011=

USA.gov is the U.S. government's official web portal to all federal, state and local government web resources and services.